createdAt,value
2023-05-22T00:01:32.520Z,21.48
2023-05-22T00:04:00.221Z,21.45
2023-05-22T00:06:27.787Z,21.45
2023-05-22T00:08:55.267Z,21.37
2023-05-22T00:11:23.024Z,21.39
2023-05-22T00:13:50.540Z,21.37
2023-05-22T00:16:18.045Z,21.43
2023-05-22T00:18:45.631Z,21.49
2023-05-22T00:21:13.114Z,21.56
2023-05-22T00:23:41.585Z,21.56
2023-05-22T00:26:08.956Z,21.49
2023-05-22T00:28:36.519Z,21.45
2023-05-22T00:31:04.093Z,21.33
2023-05-22T00:33:31.647Z,21.24
2023-05-22T00:35:59.420Z,21.19
2023-05-22T00:38:35.896Z,21.23
2023-05-22T00:41:04.250Z,21.26
2023-05-22T00:43:33.288Z,21.30
2023-05-22T00:46:01.093Z,21.43
2023-05-22T00:48:28.424Z,21.37
2023-05-22T00:50:57.230Z,21.30
2023-05-22T00:53:25.409Z,21.21
2023-05-22T00:55:53.873Z,21.17
2023-05-22T00:58:21.906Z,21.09
2023-05-22T01:00:49.622Z,21.05
2023-05-22T01:03:18.192Z,21.05
2023-05-22T01:05:46.123Z,20.90
2023-05-22T01:08:13.508Z,20.88
2023-05-22T01:10:44.863Z,20.91
2023-05-22T01:13:15.366Z,20.90
2023-05-22T01:15:48.935Z,20.84
2023-05-22T01:18:36.603Z,20.84
2023-05-22T01:21:10.384Z,20.71
2023-05-22T01:23:40.949Z,20.78
2023-05-22T01:26:21.366Z,20.38
2023-05-22T01:28:48.895Z,20.44
2023-05-22T01:31:17.518Z,20.36
2023-05-22T01:33:53.419Z,20.29
2023-05-22T01:36:24.727Z,20.33
2023-05-22T01:38:53.625Z,20.15
2023-05-22T01:41:21.667Z,20.04
2023-05-22T01:43:49.140Z,19.76
2023-05-22T01:46:16.742Z,19.68
2023-05-22T01:48:44.400Z,19.36
2023-05-22T01:51:23.889Z,19.12
2023-05-22T01:54:14.546Z,19.01
2023-05-22T01:56:49.613Z,18.85
2023-05-22T01:59:23.610Z,18.86
2023-05-22T02:01:52.092Z,18.81
2023-05-22T02:04:21.652Z,18.73
2023-05-22T02:06:50.943Z,18.60
2023-05-22T02:09:21.146Z,18.52
2023-05-22T02:11:49.152Z,18.37
2023-05-22T02:14:18.224Z,18.18
2023-05-22T02:16:47.805Z,18.12
2023-05-22T02:19:15.895Z,17.95
2023-05-22T02:21:43.800Z,17.83
2023-05-22T02:24:11.260Z,17.86
2023-05-22T02:26:40.179Z,17.78
2023-05-22T02:29:08.310Z,17.69
2023-05-22T02:31:36.104Z,17.58
2023-05-22T02:34:05.489Z,17.54
2023-05-22T02:36:33.837Z,17.42
2023-05-22T02:39:01.187Z,17.33
2023-05-22T02:41:28.714Z,17.21
2023-05-22T02:43:56.208Z,17.06
2023-05-22T02:46:23.827Z,16.99
2023-05-22T02:48:52.506Z,17.03
2023-05-22T02:51:20.002Z,17.00
2023-05-22T02:53:47.425Z,17.01
2023-05-22T02:56:15.007Z,16.99
2023-05-22T02:58:42.425Z,17.01
2023-05-22T03:01:10.537Z,16.91
2023-05-22T03:03:37.934Z,16.81
2023-05-22T03:06:06.418Z,16.86
2023-05-22T03:08:35.001Z,16.77
2023-05-22T03:11:04.227Z,16.82
2023-05-22T03:13:31.603Z,16.87
2023-05-22T03:15:59.938Z,16.87
2023-05-22T03:18:27.944Z,16.97
2023-05-22T03:20:56.135Z,16.93
2023-05-22T03:23:25.246Z,16.93
2023-05-22T03:25:52.924Z,16.79
2023-05-22T03:28:21.415Z,16.81
2023-05-22T03:30:49.528Z,16.75
2023-05-22T03:33:27.519Z,16.64
2023-05-22T03:35:55.194Z,16.74
2023-05-22T03:38:22.808Z,16.79
2023-05-22T03:40:50.179Z,16.79
2023-05-22T03:43:17.665Z,16.74
2023-05-22T03:45:45.073Z,16.70
2023-05-22T03:48:12.945Z,16.68
2023-05-22T03:50:40.789Z,16.76
2023-05-22T03:53:08.459Z,16.77
2023-05-22T03:55:36.101Z,16.72
2023-05-22T03:58:03.654Z,16.71
2023-05-22T04:00:32.411Z,16.84
2023-05-22T04:02:59.739Z,16.85
2023-05-22T04:05:27.506Z,16.91
2023-05-22T04:07:56.043Z,16.92
2023-05-22T04:10:23.602Z,16.89
2023-05-22T04:12:52.058Z,16.88
2023-05-22T04:15:19.477Z,16.87
2023-05-22T04:17:47.698Z,16.86
2023-05-22T04:20:16.746Z,16.81
2023-05-22T04:22:46.611Z,16.78
2023-05-22T04:25:14.068Z,16.78
2023-05-22T04:27:41.368Z,16.76
2023-05-22T04:30:10.585Z,16.69
2023-05-22T04:32:39.447Z,16.73
2023-05-22T04:35:06.824Z,16.76
2023-05-22T04:37:36.112Z,16.69
2023-05-22T04:40:07.795Z,16.71
2023-05-22T04:42:35.226Z,16.74
2023-05-22T04:45:04.311Z,16.75
2023-05-22T04:47:32.150Z,16.77
2023-05-22T04:50:05.086Z,16.80
2023-05-22T04:52:32.547Z,16.80
2023-05-22T04:55:01.173Z,16.85
2023-05-22T04:57:29.830Z,16.89
2023-05-22T04:59:58.240Z,16.88
2023-05-22T05:02:25.750Z,16.90
2023-05-22T05:04:53.298Z,16.93
2023-05-22T05:07:21.622Z,16.96
2023-05-22T05:09:49.567Z,17.06
2023-05-22T05:12:16.990Z,17.02
2023-05-22T05:14:44.450Z,17.08
2023-05-22T05:17:15.685Z,17.17
2023-05-22T05:19:43.177Z,17.22
2023-05-22T05:22:10.937Z,17.22
2023-05-22T05:24:38.470Z,17.22
2023-05-22T05:27:06.085Z,17.30
2023-05-22T05:29:33.522Z,17.33
2023-05-22T05:32:06.425Z,17.42
2023-05-22T05:34:46.905Z,17.40
2023-05-22T05:37:32.771Z,17.39
2023-05-22T05:40:02.821Z,17.45
2023-05-22T05:42:30.294Z,17.48
2023-05-22T05:44:59.628Z,17.60
2023-05-22T05:47:29.793Z,17.67
2023-05-22T05:49:58.977Z,17.68
2023-05-22T05:52:32.799Z,17.81
2023-05-22T05:55:03.570Z,18.35
2023-05-22T05:57:31.259Z,18.27
2023-05-22T05:59:59.102Z,18.31
2023-05-22T06:02:41.967Z,18.40
2023-05-22T06:05:23.182Z,18.60
2023-05-22T06:07:58.413Z,18.61
2023-05-22T06:10:26.534Z,18.56
2023-05-22T06:13:13.544Z,18.60
2023-05-22T06:15:41.593Z,18.70
2023-05-22T06:18:21.120Z,18.81
2023-05-22T06:20:48.927Z,18.91
2023-05-22T06:23:16.357Z,18.99
2023-05-22T06:25:46.693Z,18.94
2023-05-22T06:28:14.815Z,19.12
2023-05-22T06:30:42.228Z,19.05
2023-05-22T06:33:14.710Z,19.15
2023-05-22T06:35:43.255Z,19.36
2023-05-22T06:38:24.612Z,19.36
2023-05-22T06:40:52.107Z,19.33
2023-05-22T06:43:23.211Z,19.35
2023-05-22T06:45:55.333Z,19.58
2023-05-22T06:48:37.726Z,19.93
2023-05-22T06:51:21.295Z,20.12
2023-05-22T06:53:51.953Z,20.03
2023-05-22T06:56:24.875Z,20.19
2023-05-22T06:58:59.241Z,20.42
2023-05-22T07:02:01.861Z,20.44
2023-05-22T07:04:47.358Z,20.46
2023-05-22T07:07:19.647Z,20.84
2023-05-22T07:09:47.909Z,20.91
2023-05-22T07:12:15.686Z,20.79
2023-05-22T07:14:43.096Z,20.66
2023-05-22T07:17:10.405Z,21.07
2023-05-22T07:19:42.601Z,21.18
2023-05-22T07:22:09.940Z,21.64
2023-05-22T07:24:39.449Z,22.00
2023-05-22T07:27:09.317Z,22.24
2023-05-22T07:29:38.090Z,22.45
2023-05-22T07:32:06.861Z,22.77
2023-05-22T07:34:35.567Z,23.08
2023-05-22T07:37:09.437Z,23.23
2023-05-22T07:39:37.308Z,23.44
2023-05-22T07:42:06.200Z,23.59
2023-05-22T07:44:38.142Z,23.77
2023-05-22T07:47:06.116Z,23.59
2023-05-22T07:49:34.713Z,23.77
2023-05-22T07:52:02.250Z,23.84
2023-05-22T07:54:29.645Z,23.96
2023-05-22T07:56:57.993Z,23.83
2023-05-22T07:59:28.652Z,23.88
2023-05-22T08:01:58.894Z,24.22
2023-05-22T08:04:26.485Z,24.25
2023-05-22T08:06:53.882Z,24.16
2023-05-22T08:09:21.747Z,24.29
2023-05-22T08:11:49.062Z,24.51
2023-05-22T08:14:16.518Z,24.69
2023-05-22T08:16:43.961Z,24.70
2023-05-22T08:19:11.478Z,24.65
2023-05-22T08:21:39.944Z,24.65
2023-05-22T08:24:08.069Z,24.99
2023-05-22T08:26:35.479Z,25.01
2023-05-22T08:29:03.182Z,24.93
2023-05-22T08:31:31.081Z,24.61
2023-05-22T08:34:02.771Z,24.44
2023-05-22T08:36:31.602Z,24.89
2023-05-22T08:38:58.901Z,25.16
2023-05-22T08:41:26.296Z,25.09
2023-05-22T08:43:53.783Z,25.42
2023-05-22T08:46:26.201Z,25.46
2023-05-22T08:48:56.892Z,25.49
2023-05-22T08:51:28.175Z,25.74
2023-05-22T08:53:58.951Z,25.86
2023-05-22T08:56:29.131Z,25.89
2023-05-22T08:58:57.582Z,26.04
2023-05-22T09:01:24.913Z,26.19
2023-05-22T09:03:52.361Z,26.30
2023-05-22T09:06:19.822Z,26.30
2023-05-22T09:08:48.119Z,26.25
2023-05-22T09:11:16.487Z,26.29
2023-05-22T09:13:44.795Z,26.59
2023-05-22T09:16:13.087Z,26.51
2023-05-22T09:18:41.540Z,26.52
2023-05-22T09:21:21.396Z,26.47
2023-05-22T09:23:59.651Z,26.47
2023-05-22T09:26:28.379Z,26.38
2023-05-22T09:28:57.116Z,26.56
2023-05-22T09:31:24.500Z,26.72
2023-05-22T09:33:51.903Z,26.77
2023-05-22T09:36:19.211Z,26.62
2023-05-22T09:38:46.606Z,26.87
2023-05-22T09:41:13.955Z,26.95
2023-05-22T09:43:49.590Z,26.89
2023-05-22T09:46:17.336Z,27.09
2023-05-22T09:48:44.645Z,27.20
2023-05-22T09:51:13.063Z,27.14
2023-05-22T09:53:41.338Z,27.17
2023-05-22T09:56:10.760Z,27.30
2023-05-22T09:58:40.644Z,27.33
2023-05-22T10:01:10.658Z,27.48
2023-05-22T10:03:39.392Z,27.43
2023-05-22T10:06:06.926Z,27.51
2023-05-22T10:08:38.822Z,27.37
2023-05-22T10:11:06.621Z,27.31
2023-05-22T10:13:35.784Z,27.58
2023-05-22T10:16:04.660Z,27.52
2023-05-22T10:18:32.073Z,27.45
2023-05-22T10:20:59.782Z,27.50
2023-05-22T10:23:28.380Z,27.67
2023-05-22T10:25:56.027Z,27.79
2023-05-22T10:28:30.516Z,27.94
2023-05-22T10:31:05.384Z,27.86
2023-05-22T10:34:05.895Z,27.81
2023-05-22T10:36:36.163Z,28.06
2023-05-22T10:39:22.947Z,28.41
2023-05-22T10:41:50.693Z,28.59
2023-05-22T10:44:18.153Z,28.75
2023-05-22T10:46:51.518Z,28.65
2023-05-22T10:49:23.528Z,28.63
2023-05-22T10:51:55.875Z,28.76
2023-05-22T10:54:40.236Z,28.88
2023-05-22T10:57:14.758Z,28.66
2023-05-22T10:59:42.364Z,28.72
2023-05-22T11:02:25.792Z,28.63
2023-05-22T11:04:53.257Z,28.35
2023-05-22T11:07:20.825Z,28.26
2023-05-22T11:09:48.723Z,28.09
2023-05-22T11:12:24.279Z,28.37
2023-05-22T11:14:51.703Z,28.45
2023-05-22T11:17:27.725Z,28.19
2023-05-22T11:20:02.366Z,28.20
2023-05-22T11:22:35.084Z,28.20
2023-05-22T11:25:09.754Z,27.90
2023-05-22T11:27:39.078Z,28.03
2023-05-22T11:30:07.298Z,28.34
2023-05-22T11:32:38.489Z,28.42
2023-05-22T11:35:08.259Z,28.55
2023-05-22T11:37:39.887Z,28.40
2023-05-22T11:40:07.725Z,28.22
2023-05-22T11:42:35.300Z,28.32
2023-05-22T11:45:03.374Z,28.33
2023-05-22T11:47:32.839Z,28.24
2023-05-22T11:50:01.659Z,27.84
2023-05-22T11:52:35.557Z,28.12
2023-05-22T11:55:05.772Z,28.42
2023-05-22T11:57:33.234Z,28.58
2023-05-22T12:00:01.057Z,28.48
2023-05-22T12:02:28.565Z,28.48
2023-05-22T12:04:56.518Z,28.54
2023-05-22T12:07:24.592Z,28.49
2023-05-22T12:09:52.292Z,28.41
2023-05-22T12:12:22.479Z,28.27
2023-05-22T12:14:50.066Z,27.96
2023-05-22T12:17:18.112Z,28.22
2023-05-22T12:19:47.252Z,28.35
2023-05-22T12:22:14.758Z,28.11
2023-05-22T12:24:43.073Z,28.10
2023-05-22T12:27:10.868Z,28.21
2023-05-22T12:29:42.354Z,28.58
2023-05-22T12:32:11.205Z,28.72
2023-05-22T12:34:45.844Z,28.97
2023-05-22T12:37:23.088Z,28.78
2023-05-22T12:39:54.329Z,28.73
2023-05-22T12:42:21.891Z,28.73
2023-05-22T12:44:52.440Z,28.86
2023-05-22T12:47:28.769Z,29.11
2023-05-22T12:49:56.453Z,29.25
2023-05-22T12:52:23.980Z,29.03
2023-05-22T12:54:51.962Z,28.84
2023-05-22T12:57:19.396Z,29.07
2023-05-22T12:59:47.002Z,29.19
2023-05-22T13:02:14.529Z,29.09
2023-05-22T13:04:42.203Z,28.87
2023-05-22T13:07:09.537Z,28.78
2023-05-22T13:09:37.186Z,28.81
2023-05-22T13:12:05.042Z,28.42
2023-05-22T13:14:32.533Z,28.64
2023-05-22T13:16:59.984Z,28.78
2023-05-22T13:19:27.618Z,28.84
2023-05-22T13:21:55.205Z,28.85
2023-05-22T13:24:22.554Z,28.80
2023-05-22T13:26:49.982Z,29.07
2023-05-22T13:29:17.379Z,29.04
2023-05-22T13:31:44.826Z,28.96
2023-05-22T13:34:12.270Z,29.07
2023-05-22T13:36:39.808Z,28.69
2023-05-22T13:39:07.330Z,28.75
2023-05-22T13:41:34.793Z,28.62
2023-05-22T13:44:02.194Z,28.77
2023-05-22T13:46:29.772Z,28.63
2023-05-22T13:48:57.105Z,29.01
2023-05-22T13:51:27.325Z,28.89
2023-05-22T13:53:54.954Z,29.13
2023-05-22T13:56:23.224Z,28.84
2023-05-22T13:58:50.732Z,28.81
2023-05-22T14:01:18.133Z,29.09
2023-05-22T14:03:45.634Z,29.00
2023-05-22T14:06:13.140Z,29.02
2023-05-22T14:08:41.132Z,29.13
2023-05-22T14:11:08.490Z,29.13
2023-05-22T14:13:36.066Z,28.75
2023-05-22T14:16:03.513Z,28.70
2023-05-22T14:18:31.487Z,28.67
2023-05-22T14:20:58.907Z,28.86
2023-05-22T14:23:26.400Z,28.87
2023-05-22T14:25:53.929Z,28.78
2023-05-22T14:28:21.316Z,28.87
2023-05-22T14:30:48.821Z,28.97
2023-05-22T14:33:16.232Z,29.01
2023-05-22T14:35:44.561Z,29.07
2023-05-22T14:38:11.925Z,29.03
2023-05-22T14:40:39.479Z,29.24
2023-05-22T14:43:06.987Z,29.21
2023-05-22T14:45:34.446Z,29.22
2023-05-22T14:48:01.990Z,29.29
2023-05-22T14:50:29.575Z,29.27
2023-05-22T14:52:56.946Z,28.93
2023-05-22T14:55:27.838Z,29.07
2023-05-22T14:57:55.690Z,29.14
2023-05-22T15:00:23.371Z,29.02
2023-05-22T15:02:51.111Z,28.89
2023-05-22T15:05:18.799Z,28.71
2023-05-22T15:07:48.405Z,28.49
2023-05-22T15:10:17.418Z,28.55
2023-05-22T15:12:44.811Z,28.49
2023-05-22T15:15:12.197Z,28.59
2023-05-22T15:17:42.352Z,28.53
2023-05-22T15:20:11.148Z,28.59
2023-05-22T15:22:39.324Z,28.40
2023-05-22T15:25:08.334Z,28.35
2023-05-22T15:27:36.187Z,28.35
2023-05-22T15:30:04.749Z,28.61
2023-05-22T15:32:34.243Z,28.63
2023-05-22T15:35:01.764Z,28.38
2023-05-22T15:37:34.417Z,28.44
2023-05-22T15:40:03.834Z,28.37
2023-05-22T15:42:31.716Z,28.33
2023-05-22T15:44:59.734Z,28.38
2023-05-22T15:47:27.345Z,28.28
2023-05-22T15:49:54.866Z,28.20
2023-05-22T15:52:24.548Z,28.23
2023-05-22T15:54:52.286Z,27.81
2023-05-22T15:57:20.153Z,27.83
2023-05-22T15:59:50.780Z,28.01
2023-05-22T16:02:18.766Z,28.03
2023-05-22T16:04:46.330Z,28.02
2023-05-22T16:07:13.797Z,27.84
2023-05-22T16:09:43.493Z,27.90
2023-05-22T16:12:11.003Z,27.77
2023-05-22T16:14:39.868Z,27.65
2023-05-22T16:17:07.729Z,27.67
2023-05-22T16:19:35.370Z,27.61
2023-05-22T16:22:03.191Z,27.39
2023-05-22T16:24:30.713Z,27.45
2023-05-22T16:26:59.492Z,27.19
2023-05-22T16:29:26.941Z,27.09
2023-05-22T16:31:54.483Z,26.99
2023-05-22T16:34:21.844Z,26.95
2023-05-22T16:36:49.310Z,26.84
2023-05-22T16:39:16.847Z,26.81
2023-05-22T16:41:44.403Z,26.74
2023-05-22T16:44:11.969Z,26.65
2023-05-22T16:46:39.503Z,26.71
2023-05-22T16:49:06.936Z,26.70
2023-05-22T16:51:34.496Z,26.62
2023-05-22T16:54:02.104Z,26.71
2023-05-22T16:56:29.542Z,26.89
2023-05-22T16:59:00.578Z,26.88
2023-05-22T17:01:48.907Z,26.82
2023-05-22T17:04:18.664Z,26.73
2023-05-22T17:06:46.335Z,26.62
2023-05-22T17:09:13.949Z,26.49
2023-05-22T17:11:41.457Z,26.15
2023-05-22T17:14:09.495Z,26.21
2023-05-22T17:16:38.077Z,26.02
2023-05-22T17:19:05.839Z,26.13
2023-05-22T17:21:33.350Z,26.12
2023-05-22T17:24:01.071Z,26.08
2023-05-22T17:26:29.452Z,25.95
2023-05-22T17:28:56.842Z,25.76
2023-05-22T17:31:24.360Z,25.49
2023-05-22T17:33:52.017Z,25.61
2023-05-22T17:36:19.535Z,25.51
2023-05-22T17:38:47.139Z,25.44
2023-05-22T17:41:14.604Z,25.05
2023-05-22T17:43:42.212Z,24.82
2023-05-22T17:46:09.813Z,24.49
2023-05-22T17:48:37.488Z,24.31
2023-05-22T17:51:04.946Z,24.13
2023-05-22T17:53:35.171Z,23.97
2023-05-22T17:56:04.786Z,23.74
2023-05-22T17:58:32.857Z,23.49
2023-05-22T18:01:00.314Z,23.47
2023-05-22T18:03:27.930Z,23.45
2023-05-22T18:05:55.637Z,23.42
2023-05-22T18:08:23.155Z,23.28
2023-05-22T18:10:50.730Z,23.12
2023-05-22T18:13:19.668Z,22.91
2023-05-22T18:15:48.401Z,22.92
2023-05-22T18:18:16.744Z,22.64
2023-05-22T18:20:46.247Z,22.53
2023-05-22T18:23:13.804Z,22.48
2023-05-22T18:25:41.672Z,22.42
2023-05-22T18:28:09.177Z,22.36
2023-05-22T18:30:36.677Z,22.20
2023-05-22T18:33:04.162Z,22.17
2023-05-22T18:35:31.646Z,22.11
2023-05-22T18:38:01.053Z,21.98
2023-05-22T18:40:28.901Z,21.80
2023-05-22T18:42:56.255Z,21.69
2023-05-22T18:45:23.646Z,21.53
2023-05-22T18:47:51.146Z,21.42
2023-05-22T18:50:18.768Z,21.28
2023-05-22T18:52:46.143Z,21.15
2023-05-22T18:55:13.853Z,21.01
2023-05-22T18:57:41.579Z,21.20
2023-05-22T19:00:10.513Z,21.24
2023-05-22T19:02:38.383Z,21.25
2023-05-22T19:05:07.091Z,21.15
2023-05-22T19:07:34.850Z,21.23
2023-05-22T19:10:06.224Z,21.25
2023-05-22T19:12:35.838Z,21.23
2023-05-22T19:15:03.979Z,21.28
2023-05-22T19:17:32.611Z,21.29
2023-05-22T19:20:01.104Z,21.22
2023-05-22T19:22:29.433Z,21.23
2023-05-22T19:24:57.214Z,21.23
2023-05-22T19:27:25.740Z,21.05
2023-05-22T19:29:53.427Z,20.95
2023-05-22T19:32:21.496Z,20.95
2023-05-22T19:34:49.614Z,21.00
2023-05-22T19:37:17.440Z,21.05
2023-05-22T19:39:45.923Z,21.08
2023-05-22T19:42:14.339Z,21.06
2023-05-22T19:44:43.061Z,21.19
2023-05-22T19:47:10.890Z,21.08
2023-05-22T19:49:38.453Z,20.95
2023-05-22T19:52:06.814Z,20.92
2023-05-22T19:54:34.864Z,20.80
2023-05-22T19:57:02.995Z,20.89
2023-05-22T19:59:31.181Z,20.79
2023-05-22T20:01:59.198Z,20.75
2023-05-22T20:04:26.896Z,20.70
2023-05-22T20:06:54.363Z,20.65
2023-05-22T20:09:21.766Z,20.65
2023-05-22T20:11:49.191Z,20.61
2023-05-22T20:14:16.517Z,20.58
2023-05-22T20:16:44.295Z,20.59
2023-05-22T20:19:14.374Z,20.61
2023-05-22T20:21:43.015Z,20.54
2023-05-22T20:24:17.545Z,20.53
2023-05-22T20:26:44.978Z,20.48
2023-05-22T20:29:13.063Z,20.42
2023-05-22T20:31:40.699Z,20.44
2023-05-22T20:34:09.664Z,20.40
2023-05-22T20:36:38.840Z,20.32
2023-05-22T20:39:06.773Z,20.27
2023-05-22T20:41:34.118Z,20.24
2023-05-22T20:44:02.748Z,20.18
2023-05-22T20:46:30.224Z,20.19
2023-05-22T20:48:58.463Z,20.16
2023-05-22T20:51:32.669Z,20.09
2023-05-22T20:54:00.345Z,20.05
2023-05-22T20:56:27.818Z,20.05
2023-05-22T20:58:55.592Z,19.98
2023-05-22T21:01:23.387Z,19.98
2023-05-22T21:03:51.858Z,19.94
2023-05-22T21:06:19.454Z,19.96
2023-05-22T21:08:46.921Z,19.94
2023-05-22T21:11:14.486Z,19.91
2023-05-22T21:13:41.931Z,19.88
2023-05-22T21:16:09.273Z,19.80
2023-05-22T21:18:36.645Z,19.75
2023-05-22T21:21:04.244Z,19.77
2023-05-22T21:23:31.559Z,19.71
2023-05-22T21:25:58.925Z,19.55
2023-05-22T21:28:26.577Z,19.38
2023-05-22T21:30:54.113Z,19.19
2023-05-22T21:33:21.550Z,19.13
2023-05-22T21:35:48.950Z,18.86
2023-05-22T21:38:16.507Z,18.84
2023-05-22T21:40:44.020Z,18.70
2023-05-22T21:43:11.382Z,18.68
2023-05-22T21:45:39.157Z,18.57
2023-05-22T21:48:06.532Z,18.57
2023-05-22T21:50:33.993Z,18.52
2023-05-22T21:53:01.363Z,18.36
2023-05-22T21:55:28.781Z,18.54
2023-05-22T21:57:56.497Z,18.63
2023-05-22T22:00:24.404Z,18.67
2023-05-22T22:02:51.899Z,18.58
2023-05-22T22:05:19.561Z,18.60
2023-05-22T22:07:46.944Z,18.48
2023-05-22T22:10:14.374Z,18.51
2023-05-22T22:12:41.785Z,18.31
2023-05-22T22:15:09.457Z,18.25
2023-05-22T22:17:37.387Z,18.49
2023-05-22T22:20:05.969Z,18.51
2023-05-22T22:22:33.287Z,18.37
2023-05-22T22:25:00.646Z,18.18
2023-05-22T22:27:28.050Z,18.08
2023-05-22T22:29:55.507Z,18.09
2023-05-22T22:32:22.871Z,18.17
2023-05-22T22:34:53.806Z,18.27
2023-05-22T22:37:21.776Z,18.25
2023-05-22T22:39:49.080Z,18.33
2023-05-22T22:42:16.449Z,18.36
2023-05-22T22:44:43.806Z,18.42
2023-05-22T22:47:11.081Z,18.50
2023-05-22T22:49:38.471Z,18.55
2023-05-22T22:52:05.856Z,18.57
2023-05-22T22:54:33.291Z,18.52
2023-05-22T22:57:00.590Z,18.34
2023-05-22T22:59:28.064Z,18.05
2023-05-22T23:01:55.411Z,17.80
2023-05-22T23:04:23.007Z,17.83
2023-05-22T23:06:50.445Z,17.75
2023-05-22T23:09:18.060Z,17.46
2023-05-22T23:11:45.393Z,17.60
2023-05-22T23:14:13.653Z,17.40
2023-05-22T23:16:41.225Z,17.29
2023-05-22T23:19:10.722Z,17.37
2023-05-22T23:21:38.446Z,17.44
2023-05-22T23:24:06.454Z,17.40
2023-05-22T23:26:33.909Z,17.30
2023-05-22T23:29:01.455Z,17.38
2023-05-22T23:31:30.818Z,17.27
2023-05-22T23:33:58.729Z,17.29
2023-05-22T23:36:26.256Z,17.35
2023-05-22T23:38:53.649Z,17.10
2023-05-22T23:41:21.116Z,17.17
2023-05-22T23:43:48.505Z,17.22
2023-05-22T23:46:15.906Z,17.10
2023-05-22T23:48:43.303Z,16.94
2023-05-22T23:51:14.455Z,16.90
2023-05-22T23:53:42.095Z,16.91
2023-05-22T23:56:09.820Z,16.83
2023-05-22T23:58:37.681Z,16.96
